createdAt,value
2022-11-16T00:04:13.056Z,75.28
2022-11-16T00:09:27.031Z,75.63
2022-11-16T00:14:35.914Z,75.77
2022-11-16T00:19:38.044Z,75.85
2022-11-16T00:24:39.926Z,75.81
2022-11-16T00:29:41.828Z,75.89
2022-11-16T00:34:43.688Z,75.59
2022-11-16T00:39:45.497Z,76.38
2022-11-16T00:44:47.983Z,76.90
2022-11-16T00:49:49.968Z,77.31
2022-11-16T00:54:52.355Z,78.00
2022-11-16T00:59:54.276Z,78.30
2022-11-16T01:04:56.601Z,78.90
2022-11-16T01:09:58.448Z,79.43
2022-11-16T01:15:00.284Z,79.56
2022-11-16T01:20:05.927Z,79.71
2022-11-16T01:25:09.585Z,79.86
2022-11-16T01:30:13.687Z,79.86
2022-11-16T01:35:20.826Z,79.68
2022-11-16T01:40:23.359Z,79.41
2022-11-16T01:45:38.114Z,79.77
2022-11-16T01:50:43.499Z,79.97
2022-11-16T01:55:47.649Z,79.96
2022-11-16T02:00:58.786Z,80.08
2022-11-16T02:06:15.981Z,79.90
2022-11-16T02:11:45.016Z,79.75
2022-11-16T02:17:27.994Z,79.74
2022-11-16T02:23:09.117Z,79.54
2022-11-16T02:28:39.859Z,79.58
2022-11-16T02:33:43.006Z,79.57
2022-11-16T02:39:08.031Z,79.38
2022-11-16T02:44:15.776Z,79.18
2022-11-16T02:49:19.942Z,79.19
2022-11-16T02:54:24.680Z,79.23
2022-11-16T02:59:33.432Z,79.20
2022-11-16T03:04:40.941Z,79.26
2022-11-16T03:09:45.695Z,79.28
2022-11-16T03:14:54.468Z,79.32
2022-11-16T03:20:08.181Z,79.36
2022-11-16T03:25:19.116Z,79.29
2022-11-16T03:30:27.850Z,79.35
2022-11-16T03:35:38.118Z,79.32
2022-11-16T03:40:43.044Z,79.41
2022-11-16T03:45:46.275Z,79.62
2022-11-16T03:50:48.717Z,79.68
2022-11-16T03:55:51.343Z,79.70
2022-11-16T04:00:53.884Z,79.54
2022-11-16T04:06:14.693Z,79.48
2022-11-16T04:11:39.097Z,79.53
2022-11-16T04:17:01.692Z,79.64
2022-11-16T04:22:57.797Z,79.77
2022-11-16T04:28:16.274Z,79.97
2022-11-16T04:33:40.846Z,80.08
2022-11-16T04:38:42.700Z,80.23
2022-11-16T04:43:44.605Z,80.21
2022-11-16T04:48:46.588Z,80.24
2022-11-16T04:53:48.452Z,80.21
2022-11-16T04:58:54.596Z,80.20
2022-11-16T05:03:56.613Z,80.43
2022-11-16T05:08:58.693Z,80.56
2022-11-16T05:14:00.712Z,80.43
2022-11-16T05:19:22.028Z,80.49
2022-11-16T05:24:36.073Z,80.62
2022-11-16T05:29:39.729Z,80.66
2022-11-16T05:34:42.423Z,80.83
2022-11-16T05:39:45.401Z,80.82
2022-11-16T05:44:47.712Z,80.76
2022-11-16T05:49:51.368Z,80.73
2022-11-16T05:54:53.746Z,80.79
2022-11-16T05:59:55.751Z,80.99
2022-11-16T06:04:57.654Z,81.05
2022-11-16T06:09:59.658Z,81.06
2022-11-16T06:15:01.851Z,81.07
2022-11-16T06:20:04.023Z,81.16
2022-11-16T06:25:09.301Z,81.21
2022-11-16T06:30:14.693Z,81.36
2022-11-16T06:35:17.039Z,81.60
2022-11-16T06:40:26.062Z,81.74
2022-11-16T06:45:29.245Z,81.75
2022-11-16T06:50:32.351Z,81.69
2022-11-16T06:55:34.330Z,81.61
2022-11-16T07:00:38.298Z,81.67
2022-11-16T07:05:42.285Z,81.96
2022-11-16T07:10:48.196Z,82.25
2022-11-16T07:15:50.332Z,82.46
2022-11-16T07:20:52.784Z,82.62
2022-11-16T07:26:00.235Z,82.89
2022-11-16T07:31:11.840Z,83.09
2022-11-16T07:36:15.069Z,83.13
2022-11-16T07:41:20.509Z,83.02
2022-11-16T07:46:47.445Z,82.92
2022-11-16T07:51:50.582Z,83.09
2022-11-16T07:57:10.378Z,82.98
2022-11-16T08:02:15.169Z,82.94
2022-11-16T08:07:19.168Z,82.86
2022-11-16T08:12:26.055Z,82.75
2022-11-16T08:17:28.230Z,82.52
2022-11-16T08:22:30.312Z,82.43
2022-11-16T08:27:33.415Z,82.16
2022-11-16T08:32:36.933Z,81.85
2022-11-16T08:37:39.238Z,81.73
2022-11-16T08:42:43.950Z,81.71
2022-11-16T08:47:46.664Z,81.92
2022-11-16T08:52:49.360Z,81.96
2022-11-16T08:57:52.244Z,82.07
2022-11-16T09:02:54.346Z,82.21
2022-11-16T09:07:56.409Z,82.16
2022-11-16T09:12:58.304Z,82.28
2022-11-16T09:18:00.181Z,82.35
2022-11-16T09:23:02.054Z,82.39
2022-11-16T09:28:04.041Z,82.37
2022-11-16T09:33:05.914Z,82.29
2022-11-16T09:38:10.001Z,82.21
2022-11-16T09:43:53.907Z,82.32
2022-11-16T09:49:03.050Z,82.65
2022-11-16T09:54:11.587Z,83.01
2022-11-16T09:59:26.058Z,83.25
2022-11-16T10:05:15.815Z,83.27
2022-11-16T10:10:40.677Z,83.21
2022-11-16T10:15:57.307Z,83.32
2022-11-16T10:21:28.995Z,83.49
2022-11-16T10:26:48.253Z,83.63
2022-11-16T10:32:14.484Z,83.73
2022-11-16T10:37:16.509Z,83.89
2022-11-16T10:42:40.809Z,84.16
2022-11-16T10:48:04.354Z,84.39
2022-11-16T10:53:06.204Z,84.57
2022-11-16T10:58:08.017Z,84.81
2022-11-16T11:03:12.313Z,85.06
2022-11-16T11:08:26.043Z,85.28
2022-11-16T11:13:27.998Z,85.67
2022-11-16T11:18:30.326Z,85.84
2022-11-16T11:23:47.013Z,85.79
2022-11-16T11:28:49.937Z,86.02
2022-11-16T11:33:55.919Z,86.37
2022-11-16T11:39:13.224Z,86.79
2022-11-16T11:44:18.193Z,87.26
2022-11-16T11:49:33.566Z,87.49
2022-11-16T11:54:46.090Z,87.70
2022-11-16T11:59:50.738Z,87.78
2022-11-16T12:05:18.280Z,87.77
2022-11-16T12:10:46.819Z,87.74
2022-11-16T12:15:55.043Z,87.71
2022-11-16T12:21:18.120Z,87.67
2022-11-16T12:26:43.677Z,87.72
2022-11-16T12:32:02.530Z,87.54
2022-11-16T12:37:36.656Z,87.29
2022-11-16T12:42:38.537Z,87.30
2022-11-16T12:48:07.345Z,87.28
2022-11-16T12:53:24.714Z,87.27
2022-11-16T12:59:04.545Z,87.26
2022-11-16T13:04:16.418Z,87.29
2022-11-16T13:10:11.908Z,87.46
2022-11-16T13:15:18.739Z,87.48
2022-11-16T13:20:58.103Z,87.45
2022-11-16T13:26:23.978Z,87.37
2022-11-16T13:31:44.340Z,87.28
2022-11-16T13:36:46.952Z,87.26
2022-11-16T13:41:51.015Z,87.24
2022-11-16T13:47:03.726Z,87.10
2022-11-16T13:52:41.032Z,86.93
2022-11-16T13:57:34.168Z,86.81
2022-11-16T14:02:38.040Z,86.90
2022-11-16T14:07:44.370Z,86.88
2022-11-16T14:12:53.324Z,86.91
2022-11-16T14:17:57.061Z,86.81
2022-11-16T14:23:30.266Z,86.53
2022-11-16T14:28:53.188Z,86.54
2022-11-16T14:33:57.349Z,86.52
2022-11-16T14:39:20.243Z,86.34
2022-11-16T14:44:25.670Z,86.47
2022-11-16T14:49:27.647Z,86.70
2022-11-16T14:54:37.519Z,86.83
2022-11-16T14:59:38.636Z,86.97
2022-11-16T15:04:40.023Z,87.03
2022-11-16T15:09:46.589Z,87.15
2022-11-16T15:14:54.133Z,87.33
2022-11-16T15:19:56.294Z,87.41
2022-11-16T15:24:59.814Z,87.47
2022-11-16T15:30:13.872Z,87.44
2022-11-16T15:35:30.191Z,87.50
2022-11-16T15:40:32.698Z,87.55
2022-11-16T15:45:36.883Z,87.64
2022-11-16T15:50:38.388Z,87.61
2022-11-16T15:55:40.246Z,87.58
2022-11-16T16:00:46.750Z,87.52
2022-11-16T16:05:48.933Z,87.58
2022-11-16T16:11:04.120Z,87.70
2022-11-16T16:16:28.388Z,87.67
2022-11-16T16:21:42.691Z,87.65
2022-11-16T16:26:43.852Z,87.62
2022-11-16T16:31:45.116Z,87.71
2022-11-16T16:36:46.218Z,87.75
2022-11-16T16:41:47.539Z,87.81
2022-11-16T16:46:48.695Z,87.75
2022-11-16T16:51:49.854Z,87.77
2022-11-16T16:56:51.431Z,87.89
2022-11-16T17:01:52.731Z,87.96
2022-11-16T17:06:54.016Z,88.06
2022-11-16T17:11:55.214Z,88.22
2022-11-16T17:16:56.448Z,88.40
2022-11-16T17:21:59.493Z,88.56
2022-11-16T17:27:00.951Z,88.70
2022-11-16T17:32:02.855Z,88.96
2022-11-16T17:37:04.193Z,89.18
2022-11-16T17:42:05.333Z,89.36
2022-11-16T17:47:06.902Z,89.57
2022-11-16T17:52:08.088Z,89.77
2022-11-16T17:57:09.348Z,89.85
2022-11-16T18:02:10.994Z,90.00
2022-11-16T18:07:12.381Z,90.19
2022-11-16T18:12:13.855Z,90.34
2022-11-16T18:17:15.121Z,90.38
2022-11-16T18:22:16.198Z,90.43
2022-11-16T18:27:17.338Z,90.53
2022-11-16T18:32:18.430Z,90.63
2022-11-16T18:37:19.553Z,90.70
2022-11-16T18:42:20.654Z,90.73
2022-11-16T18:47:21.979Z,90.78
2022-11-16T18:52:23.139Z,90.76
2022-11-16T18:57:24.409Z,90.72
2022-11-16T19:02:25.563Z,90.70
2022-11-16T19:07:26.750Z,90.63
2022-11-16T19:12:28.087Z,90.61
2022-11-16T19:17:29.350Z,90.51
2022-11-16T19:22:32.918Z,90.47
2022-11-16T19:27:34.131Z,90.44
2022-11-16T19:32:35.300Z,90.32
2022-11-16T19:37:36.860Z,90.26
2022-11-16T19:42:38.191Z,90.19
2022-11-16T19:47:39.309Z,90.16
2022-11-16T19:52:40.545Z,90.11
2022-11-16T19:57:41.811Z,90.03
2022-11-16T20:02:42.906Z,90.01
2022-11-16T20:07:44.334Z,90.01
2022-11-16T20:12:45.492Z,90.04
2022-11-16T20:17:46.564Z,90.21
2022-11-16T20:22:50.140Z,90.37
2022-11-16T20:27:51.243Z,90.45
2022-11-16T20:32:52.360Z,90.32
2022-11-16T20:37:53.488Z,90.29
2022-11-16T20:42:58.466Z,90.35
2022-11-16T20:47:59.910Z,90.48
2022-11-16T20:53:01.131Z,90.50
2022-11-16T20:58:02.291Z,90.52
2022-11-16T21:03:03.575Z,90.67
2022-11-16T21:08:05.226Z,90.67
2022-11-16T21:13:30.960Z,90.67
2022-11-16T21:18:32.638Z,90.76
2022-11-16T21:23:35.625Z,90.86
2022-11-16T21:28:37.620Z,90.92
2022-11-16T21:33:39.184Z,90.93
2022-11-16T21:38:40.960Z,91.00
2022-11-16T21:43:43.449Z,91.10
2022-11-16T21:48:46.389Z,91.21
2022-11-16T21:53:47.923Z,91.30
2022-11-16T21:58:49.957Z,91.44
2022-11-16T22:04:10.628Z,91.57
2022-11-16T22:09:17.205Z,91.74
2022-11-16T22:14:20.198Z,91.94
2022-11-16T22:19:21.319Z,92.09
2022-11-16T22:24:22.642Z,92.15
2022-11-16T22:29:24.210Z,92.12
2022-11-16T22:34:29.669Z,92.22
2022-11-16T22:39:30.967Z,92.28
2022-11-16T22:44:32.201Z,92.24
2022-11-16T22:49:33.668Z,92.21
2022-11-16T22:54:37.336Z,92.29
2022-11-16T22:59:38.392Z,92.44
2022-11-16T23:04:39.708Z,92.64
2022-11-16T23:09:40.870Z,92.72
2022-11-16T23:15:05.378Z,92.81
2022-11-16T23:20:26.296Z,92.90
2022-11-16T23:25:46.946Z,92.96
2022-11-16T23:30:48.021Z,93.04
2022-11-16T23:35:49.047Z,93.10
2022-11-16T23:40:53.469Z,93.22
2022-11-16T23:45:54.728Z,93.28
2022-11-16T23:50:57.328Z,93.33
2022-11-16T23:56:06.062Z,93.39
